Time;durP1;ratioP1;P1;durP2;ratioP2;P2;SDS_P1;SDS_P2;PMS_P1;PMS_P2;Temp;Humidity;BMP_temperature;BMP_pressure;BME280_temperature;BME280_humidity;BME280_pressure;Samples;Min_cycle;Max_cycle;Signal;HPM_P1;HPM_P2
2021/12/21 00:02:00;;;;;;;;;;;;;;;;;;5114576;28;19920;-65
2021/12/21 00:04:26;;;;;;;;;;;;;;;;;;5116203;28;19920;-65
2021/12/21 00:06:52;;;;;;;;;;;;;;;;;;5113449;28;19927;-66
2021/12/21 00:09:18;;;;;;;;;;;;;;;;;;5131167;28;19991;-64
2021/12/21 00:11:44;;;;;;;;;;;;;;;;;;5114199;28;20003;-65
2021/12/21 00:14:20;;;;;;;;;;;;;;;;;;5115540;28;19920;-65
2021/12/21 00:17:07;;;;;;;;;;;;;;;;;;5113557;28;19907;-65
2021/12/21 00:19:46;;;;;;;;;;;;;;;;;;5113375;28;19920;-65
2021/12/21 00:24:50;;;;;;;;;;;;;;;;;;5146983;27;19920;-65
2021/12/21 00:27:16;;;;;;;;;;;;;;;;;;5113378;28;20078;-64
2021/12/21 00:29:42;;;;;;;;;;;;;;;;;;5113249;28;19920;-65
2021/12/21 00:32:09;;;;;;;;;;;;;;;;;;5113221;28;19920;-64
2021/12/21 00:34:35;;;;;;;;;;;;;;;;;;5130486;28;19963;-65
2021/12/21 00:37:01;;;;;;;;;;;;;;;;;;5113505;28;19927;-65
2021/12/21 00:39:27;;;;;;;;;;;;;;;;;;5112609;28;19920;-64
2021/12/21 00:41:52;;;;;;;;;;;;;;;;;;5114675;28;19920;-65
2021/12/21 00:44:18;;;;;;;;;;;;;;;;;;5113672;28;19950;-66
2021/12/21 00:46:44;;;;;;;;;;;;;;;;;;5113749;28;19931;-64
2021/12/21 00:49:15;;;;;;;;;;;;;;;;;;5113622;28;19923;-65
2021/12/21 00:51:41;;;;;;;;;;;;;;;;;;5097155;28;19980;-64
2021/12/21 00:54:07;;;;;;;;;;;;;;;;;;5113491;28;19927;-65
2021/12/21 00:56:33;;;;;;;;;;;;;;;;;;5112717;28;20309;-66
2021/12/21 00:58:59;;;;;;;;;;;;;;;;;;5095603;28;19920;-65
2021/12/21 01:01:25;;;;;;;;;;;;;;;;;;5095872;28;19924;-66
2021/12/21 01:03:56;;;;;;;;;;;;;;;;;;5113679;28;19939;-66
2021/12/21 01:06:41;;;;;;;;;;;;;;;;;;5096202;28;19994;-65
2021/12/21 01:11:45;;;;;;;;;;;;;;;;;;5112118;28;20011;-66
2021/12/21 01:17:10;;;;;;;;;;;;;;;;;;5092298;28;19920;-65
2021/12/21 01:19:51;;;;;;;;;;;;;;;;;;5093526;28;19927;-65
2021/12/21 01:22:27;;;;;;;;;;;;;;;;;;5093152;28;19920;-65
2021/12/21 01:28:13;;;;;;;;;;;;;;;;;;5092296;28;19920;-65
2021/12/21 01:30:19;;;;;;;;;;;;;;;;;;5084289;28;19967;-65
2021/12/21 01:35:52;;;;;;;;;;;;;;;;;;5090954;28;19920;-65
2021/12/21 01:38:25;;;;;;;;;;;;;;;;;;5090142;28;19920;-65
2021/12/21 01:41:02;;;;;;;;;;;;;;;;;;5095278;28;19920;-65
2021/12/21 01:44:10;;;;;;;;;;;;;;;;;;5096967;28;19930;-66
2021/12/21 01:51:50;;;;;;;;;;;;;;;;;;5096016;28;19921;-65
2021/12/21 01:54:16;;;;;;;;;;;;;;;;;;5079638;28;19942;-66
2021/12/21 01:56:42;;;;;;;;;;;;;;;;;;5095939;28;19920;-65
2021/12/21 01:59:09;;;;;;;;;;;;;;;;;;5094711;28;19920;-65
2021/12/21 02:01:35;;;;;;;;;;;;;;;;;;5094855;28;19947;-65
2021/12/21 02:04:01;;;;;;;;;;;;;;;;;;5095116;28;19920;-66
2021/12/21 02:06:27;;;;;;;;;;;;;;;;;;5079709;28;19951;-65
2021/12/21 02:08:53;;;;;;;;;;;;;;;;;;5078443;28;19966;-66
2021/12/21 02:11:19;;;;;;;;;;;;;;;;;;5095708;28;19983;-65
2021/12/21 02:13:48;;;;;;;;;;;;;;;;;;5095382;28;19978;-65
2021/12/21 02:16:20;;;;;;;;;;;;;;;;;;5095056;28;20019;-65
2021/12/21 02:23:44;;;;;;;;;;;;;;;;;;5095959;28;19952;-65
2021/12/21 02:31:42;;;;;;;;;;;;;;;;;;5095214;28;19920;-66
2021/12/21 02:34:08;;;;;;;;;;;;;;;;;;5093709;28;19974;-65
2021/12/21 02:36:34;;;;;;;;;;;;;;;;;;5093990;28;19931;-67
2021/12/21 02:39:00;;;;;;;;;;;;;;;;;;5096061;28;19960;-66
2021/12/21 02:41:26;;;;;;;;;;;;;;;;;;5095682;28;19924;-65
2021/12/21 02:43:53;;;;;;;;;;;;;;;;;;5096598;28;19928;-66
2021/12/21 02:46:19;;;;;;;;;;;;;;;;;;5095994;28;19920;-66
2021/12/21 02:48:45;;;;;;;;;;;;;;;;;;5095719;28;20069;-65
2021/12/21 02:51:11;;;;;;;;;;;;;;;;;;5077927;28;19904;-65
2021/12/21 02:53:37;;;;;;;;;;;;;;;;;;5095132;28;19928;-65
2021/12/21 02:56:02;;;;;;;;;;;;;;;;;;5094137;28;19920;-65
2021/12/21 02:58:28;;;;;;;;;;;;;;;;;;5093527;28;19924;-64
2021/12/21 03:00:54;;;;;;;;;;;;;;;;;;5094541;28;19924;-65
2021/12/21 03:03:20;;;;;;;;;;;;;;;;;;5094476;28;19942;-65
2021/12/21 03:05:57;;;;;;;;;;;;;;;;;;5094175;28;19967;-65
2021/12/21 03:08:56;;;;;;;;;;;;;;;;;;5078119;28;19955;-65
2021/12/21 03:11:25;;;;;;;;;;;;;;;;;;5090824;28;19924;-65
2021/12/21 03:13:55;;;;;;;;;;;;;;;;;;5077205;28;19995;-65
2021/12/21 03:16:20;;;;;;;;;;;;;;;;;;5092746;28;19920;-65
2021/12/21 03:18:46;;;;;;;;;;;;;;;;;;5076389;28;19987;-65
2021/12/21 03:21:12;;;;;;;;;;;;;;;;;;5093618;28;19960;-65
2021/12/21 03:23:40;;;;;;;;;;;;;;;;;;5094110;28;19966;-66
2021/12/21 03:26:06;;;;;;;;;;;;;;;;;;5077698;28;19926;-65
2021/12/21 03:28:32;;;;;;;;;;;;;;;;;;5094345;28;19920;-65
2021/12/21 03:30:58;;;;;;;;;;;;;;;;;;5094005;28;19927;-65
2021/12/21 03:33:24;;;;;;;;;;;;;;;;;;5093333;28;19908;-65
2021/12/21 03:35:50;;;;;;;;;;;;;;;;;;5093754;28;19927;-65
2021/12/21 03:38:16;;;;;;;;;;;;;;;;;;5094020;28;19950;-65
2021/12/21 03:40:42;;;;;;;;;;;;;;;;;;5094600;28;19920;-66
2021/12/21 03:43:10;;;;;;;;;;;;;;;;;;5093739;28;19979;-65
2021/12/21 03:45:39;;;;;;;;;;;;;;;;;;5077779;28;19927;-65
2021/12/21 03:48:06;;;;;;;;;;;;;;;;;;5094644;28;19951;-65
2021/12/21 03:50:32;;;;;;;;;;;;;;;;;;5077665;28;19908;-65
2021/12/21 03:52:57;;;;;;;;;;;;;;;;;;5094089;28;19931;-64
2021/12/21 03:55:23;;;;;;;;;;;;;;;;;;5092947;28;19927;-65
2021/12/21 03:57:49;;;;;;;;;;;;;;;;;;5092390;28;19920;-65
2021/12/21 04:00:15;;;;;;;;;;;;;;;;;;5076567;28;19999;-64
2021/12/21 04:02:41;;;;;;;;;;;;;;;;;;5092034;28;19991;-65
2021/12/21 04:05:07;;;;;;;;;;;;;;;;;;5093074;28;19921;-64
2021/12/21 04:07:33;;;;;;;;;;;;;;;;;;5092640;28;20354;-64
2021/12/21 04:09:59;;;;;;;;;;;;;;;;;;5092230;28;19927;-64
2021/12/21 04:12:25;;;;;;;;;;;;;;;;;;5091511;28;19924;-64
2021/12/21 04:14:52;;;;;;;;;;;;;;;;;;5092006;28;19917;-65
2021/12/21 04:17:22;;;;;;;;;;;;;;;;;;5076178;28;19916;-67
2021/12/21 04:19:48;;;;;;;;;;;;;;;;;;5091714;28;19921;-64
2021/12/21 04:22:14;;;;;;;;;;;;;;;;;;5091935;28;19939;-65
2021/12/21 04:24:40;;;;;;;;;;;;;;;;;;5074607;28;19942;-65
2021/12/21 04:27:06;;;;;;;;;;;;;;;;;;5090181;28;19920;-65
2021/12/21 04:29:32;;;;;;;;;;;;;;;;;;5073963;28;19950;-65
2021/12/21 04:31:58;;;;;;;;;;;;;;;;;;5073935;28;19976;-65
2021/12/21 04:34:23;;;;;;;;;;;;;;;;;;5091809;28;19983;-65
2021/12/21 04:36:49;;;;;;;;;;;;;;;;;;5092228;28;19920;-64
2021/12/21 04:39:29;;;;;;;;;;;;;;;;;;5089278;28;19931;-65
2021/12/21 04:41:55;;;;;;;;;;;;;;;;;;5090351;28;20406;-65
2021/12/21 04:44:21;;;;;;;;;;;;;;;;;;5091635;28;19924;-64
2021/12/21 04:46:47;;;;;;;;;;;;;;;;;;5091701;28;19983;-65
2021/12/21 04:49:13;;;;;;;;;;;;;;;;;;5089792;28;20019;-65
2021/12/21 04:51:39;;;;;;;;;;;;;;;;;;5072846;28;19920;-65
2021/12/21 04:54:05;;;;;;;;;;;;;;;;;;5089027;28;19946;-65
2021/12/21 04:56:31;;;;;;;;;;;;;;;;;;5088984;28;19934;-65
2021/12/21 04:58:57;;;;;;;;;;;;;;;;;;5088762;28;19920;-65
2021/12/21 05:01:24;;;;;;;;;;;;;;;;;;5089466;28;19960;-65
2021/12/21 05:03:50;;;;;;;;;;;;;;;;;;5073933;28;19984;-64
2021/12/21 05:06:18;;;;;;;;;;;;;;;;;;5074868;28;19921;-65
2021/12/21 05:08:52;;;;;;;;;;;;;;;;;;5089442;28;19921;-65
2021/12/21 05:11:19;;;;;;;;;;;;;;;;;;5088546;28;19983;-64
2021/12/21 05:13:45;;;;;;;;;;;;;;;;;;5071087;28;19925;-65
2021/12/21 05:16:11;;;;;;;;;;;;;;;;;;5093856;28;19920;-64
2021/12/21 05:18:37;;;;;;;;;;;;;;;;;;5092310;28;19949;-65
2021/12/21 05:21:03;;;;;;;;;;;;;;;;;;5074689;28;19983;-65
2021/12/21 05:23:29;;;;;;;;;;;;;;;;;;5090465;28;19927;-65
2021/12/21 05:25:54;;;;;;;;;;;;;;;;;;5091099;28;19946;-65
2021/12/21 05:28:20;;;;;;;;;;;;;;;;;;5091609;28;19920;-64
2021/12/21 05:30:46;;;;;;;;;;;;;;;;;;5075601;28;19927;-65
2021/12/21 05:33:14;;;;;;;;;;;;;;;;;;5092178;28;19959;-64
2021/12/21 05:35:40;;;;;;;;;;;;;;;;;;5075645;28;19920;-65
2021/12/21 05:38:08;;;;;;;;;;;;;;;;;;5092183;28;19921;-65
2021/12/21 05:40:37;;;;;;;;;;;;;;;;;;5091544;28;20361;-65
2021/12/21 05:43:03;;;;;;;;;;;;;;;;;;5075571;28;19935;-65
2021/12/21 05:45:29;;;;;;;;;;;;;;;;;;5092722;28;19976;-64
2021/12/21 05:47:55;;;;;;;;;;;;;;;;;;5088271;28;20090;-65
2021/12/21 05:50:21;;;;;;;;;;;;;;;;;;5086983;28;20385;-65
2021/12/21 05:52:47;;;;;;;;;;;;;;;;;;5088149;28;19928;-65
2021/12/21 05:55:13;;;;;;;;;;;;;;;;;;5092750;28;20020;-64
2021/12/21 05:57:39;;;;;;;;;;;;;;;;;;5091966;28;20378;-65
2021/12/21 06:00:05;;;;;;;;;;;;;;;;;;5075156;28;19924;-65
2021/12/21 06:02:33;;;;;;;;;;;;;;;;;;5092521;28;20055;-65
2021/12/21 06:04:59;;;;;;;;;;;;;;;;;;5092819;28;19924;-65
2021/12/21 06:07:25;;;;;;;;;;;;;;;;;;5075002;28;20435;-65
2021/12/21 06:09:51;;;;;;;;;;;;;;;;;;5075580;28;19921;-65
2021/12/21 06:22:46;;;;;;;;;;;;;;;;;;5091417;28;19959;-65
2021/12/21 06:27:43;;;;;;;;;;;;;;;;;;5105008;28;19926;-65
2021/12/21 06:30:09;;;;;;;;;;;;;;;;;;5112991;28;19975;-64
2021/12/21 06:32:35;;;;;;;;;;;;;;;;;;5129144;28;19954;-64
2021/12/21 06:35:01;;;;;;;;;;;;;;;;;;5112648;28;20007;-64
2021/12/21 06:37:27;;;;;;;;;;;;;;;;;;5112731;28;19962;-64
2021/12/21 06:39:53;;;;;;;;;;;;;;;;;;5113141;28;20014;-65
2021/12/21 06:42:19;;;;;;;;;;;;;;;;;;5094859;28;19986;-64
2021/12/21 06:44:52;;;;;;;;;;;;;;;;;;5113288;28;19995;-65
2021/12/21 06:52:47;;;;;;;;;;;;;;;;;;5114497;28;20016;-65
2021/12/21 06:55:13;;;;;;;;;;;;;;;;;;5113443;28;19916;-65
2021/12/21 06:57:43;;;;;;;;;;;;;;;;;;5114265;28;19942;-65
2021/12/21 07:00:09;;;;;;;;;;;;;;;;;;5117460;28;19977;-65
2021/12/21 07:02:34;;;;;;;;;;;;;;;;;;5116765;28;19920;-65
2021/12/21 07:05:00;;;;;;;;;;;;;;;;;;5117003;28;19927;-65
2021/12/21 07:07:26;;;;;;;;;;;;;;;;;;5116714;28;19949;-65
2021/12/21 07:09:59;;;;;;;;;;;;;;;;;;5117661;28;19920;-66
2021/12/21 07:20:33;;;;;;;;;;;;;;;;;;5113496;28;19920;-66
2021/12/21 07:22:59;;;;;;;;;;;;;;;;;;5114814;28;19920;-65
2021/12/21 07:25:25;;;;;;;;;;;;;;;;;;5114990;28;19979;-65
2021/12/21 07:27:52;;;;;;;;;;;;;;;;;;5098311;28;19920;-65
2021/12/21 07:30:17;;;;;;;;;;;;;;;;;;5116578;28;19974;-65
2021/12/21 07:32:43;;;;;;;;;;;;;;;;;;5098403;28;19919;-66
2021/12/21 07:35:09;;;;;;;;;;;;;;;;;;5098792;28;19934;-65
2021/12/21 07:37:35;;;;;;;;;;;;;;;;;;5113410;28;20006;-65
2021/12/21 07:40:01;;;;;;;;;;;;;;;;;;5114396;28;19927;-66
2021/12/21 07:42:27;;;;;;;;;;;;;;;;;;5115587;28;19927;-65
2021/12/21 07:44:53;;;;;;;;;;;;;;;;;;5115393;28;19920;-66
2021/12/21 07:47:19;;;;;;;;;;;;;;;;;;5115914;28;19979;-65
2021/12/21 07:49:45;;;;;;;;;;;;;;;;;;5113819;28;20022;-65
2021/12/21 07:52:11;;;;;;;;;;;;;;;;;;5114483;28;19920;-65
2021/12/21 07:54:37;;;;;;;;;;;;;;;;;;5097175;28;19920;-65
2021/12/21 07:57:02;;;;;;;;;;;;;;;;;;5114559;28;19941;-65
2021/12/21 07:59:28;;;;;;;;;;;;;;;;;;5097110;28;19920;-65
2021/12/21 08:01:54;;;;;;;;;;;;;;;;;;5114964;28;19927;-65
2021/12/21 08:04:27;;;;;;;;;;;;;;;;;;5097853;28;19920;-65
2021/12/21 08:06:55;;;;;;;;;;;;;;;;;;5097385;28;19927;-65
2021/12/21 08:09:21;;;;;;;;;;;;;;;;;;5097402;28;19904;-65
2021/12/21 08:14:31;;;;;;;;;;;;;;;;;;5113328;28;19920;-65
2021/12/21 08:16:57;;;;;;;;;;;;;;;;;;5114420;28;19950;-66
2021/12/21 08:19:23;;;;;;;;;;;;;;;;;;5097309;28;19920;-65
2021/12/21 08:21:49;;;;;;;;;;;;;;;;;;5114110;28;19946;-65
2021/12/21 08:24:15;;;;;;;;;;;;;;;;;;5096554;28;19931;-66
2021/12/21 08:26:41;;;;;;;;;;;;;;;;;;5097614;28;19920;-65
2021/12/21 08:29:07;;;;;;;;;;;;;;;;;;5115099;28;19919;-65
2021/12/21 08:31:33;;;;;;;;;;;;;;;;;;5113839;28;19927;-66
2021/12/21 08:33:59;;;;;;;;;;;;;;;;;;5097076;28;19920;-65
2021/12/21 08:36:25;;;;;;;;;;;;;;;;;;5113897;28;19924;-65
2021/12/21 08:38:51;;;;;;;;;;;;;;;;;;5096328;28;19920;-65
2021/12/21 08:41:17;;;;;;;;;;;;;;;;;;5112700;28;19920;-65
2021/12/21 08:43:43;;;;;;;;;;;;;;;;;;5114129;28;19957;-65
2021/12/21 08:46:09;;;;;;;;;;;;;;;;;;5114879;28;19903;-65
2021/12/21 08:48:35;;;;;;;;;;;;;;;;;;5113456;28;20377;-65
2021/12/21 08:51:01;;;;;;;;;;;;;;;;;;5097380;28;19927;-65
2021/12/21 08:53:26;;;;;;;;;;;;;;;;;;5115171;28;20343;-65
2021/12/21 08:55:52;;;;;;;;;;;;;;;;;;5114334;28;19920;-62
2021/12/21 08:58:18;;;;;;;;;;;;;;;;;;5097479;28;19927;-64
2021/12/21 09:00:44;;;;;;;;;;;;;;;;;;5115038;28;19927;-64
2021/12/21 09:03:10;;;;;;;;;;;;;;;;;;5116015;28;19916;-64
2021/12/21 09:05:36;;;;;;;;;;;;;;;;;;5116372;28;19920;-64
2021/12/21 09:08:02;;;;;;;;;;;;;;;;;;5115891;28;19958;-64
2021/12/21 09:10:28;;;;;;;;;;;;;;;;;;5099550;28;19920;-64
2021/12/21 09:12:54;;;;;;;;;;;;;;;;;;5116510;28;19942;-64
2021/12/21 09:15:20;;;;;;;;;;;;;;;;;;5117026;28;19926;-64
2021/12/21 09:17:46;;;;;;;;;;;;;;;;;;5116962;28;19920;-65
2021/12/21 09:20:13;;;;;;;;;;;;;;;;;;5099975;28;19951;-65
2021/12/21 09:22:40;;;;;;;;;;;;;;;;;;5117092;28;19920;-64
2021/12/21 09:25:06;;;;;;;;;;;;;;;;;;5118415;28;19904;-64
2021/12/21 09:27:32;;;;;;;;;;;;;;;;;;5101236;28;19964;-64
2021/12/21 09:29:58;;;;;;;;;;;;;;;;;;5117750;28;19944;-65
2021/12/21 09:32:23;;;;;;;;;;;;;;;;;;5118664;28;19908;-64
2021/12/21 09:34:49;;;;;;;;;;;;;;;;;;5117971;28;19904;-65
2021/12/21 09:37:18;;;;;;;;;;;;;;;;;;5100830;28;19919;-66
2021/12/21 09:39:44;;;;;;;;;;;;;;;;;;5100721;28;19924;-65
2021/12/21 09:42:10;;;;;;;;;;;;;;;;;;5118206;28;19944;-66
2021/12/21 09:44:36;;;;;;;;;;;;;;;;;;5118333;28;19974;-65
2021/12/21 09:47:01;;;;;;;;;;;;;;;;;;5118083;28;19982;-67
2021/12/21 09:49:27;;;;;;;;;;;;;;;;;;5118075;28;20486;-66
2021/12/21 09:51:54;;;;;;;;;;;;;;;;;;5117907;28;19908;-65
2021/12/21 09:54:20;;;;;;;;;;;;;;;;;;5117588;28;19915;-66
2021/12/21 09:56:46;;;;;;;;;;;;;;;;;;5100661;28;19963;-66
2021/12/21 09:59:12;;;;;;;;;;;;;;;;;;5117659;28;19926;-65
2021/12/21 10:01:38;;;;;;;;;;;;;;;;;;5119560;28;19919;-66
2021/12/21 10:04:04;;;;;;;;;;;;;;;;;;5121740;28;19943;-66
2021/12/21 10:06:30;;;;;;;;;;;;;;;;;;5120267;28;19927;-65
2021/12/21 10:08:56;;;;;;;;;;;;;;;;;;5102126;28;19919;-63
2021/12/21 10:11:22;;;;;;;;;;;;;;;;;;5099865;28;19920;-64
2021/12/21 10:13:48;;;;;;;;;;;;;;;;;;5099040;28;19920;-64
2021/12/21 10:16:13;;;;;;;;;;;;;;;;;;5115539;28;19941;-64
2021/12/21 10:18:41;;;;;;;;;;;;;;;;;;5099713;28;19951;-66
2021/12/21 10:21:07;;;;;;;;;;;;;;;;;;5122001;28;19926;-66
2021/12/21 10:23:33;;;;;;;;;;;;;;;;;;5120676;28;19919;-66
2021/12/21 10:25:59;;;;;;;;;;;;;;;;;;5120731;28;19931;-66
2021/12/21 10:28:25;;;;;;;;;;;;;;;;;;5120658;28;19935;-67
2021/12/21 10:30:51;;;;;;;;;;;;;;;;;;5120090;28;19939;-66
2021/12/21 10:33:17;;;;;;;;;;;;;;;;;;5117415;28;20423;-65
2021/12/21 10:35:42;;;;;;;;;;;;;;;;;;5116734;28;19919;-66
2021/12/21 10:38:08;;;;;;;;;;;;;;;;;;5120746;28;19904;-66
2021/12/21 10:40:34;;;;;;;;;;;;;;;;;;5120459;28;19904;-65
2021/12/21 10:43:00;;;;;;;;;;;;;;;;;;5120815;28;19908;-67
2021/12/21 10:45:26;;;;;;;;;;;;;;;;;;5120493;28;19904;-66
2021/12/21 10:47:52;;;;;;;;;;;;;;;;;;5103327;28;19907;-67
2021/12/21 10:50:18;;;;;;;;;;;;;;;;;;5120656;28;19967;-68
2021/12/21 10:52:44;;;;;;;;;;;;;;;;;;5119426;28;19904;-67
2021/12/21 10:55:10;;;;;;;;;;;;;;;;;;5118733;28;19927;-68
2021/12/21 10:57:36;;;;;;;;;;;;;;;;;;5102037;28;19908;-68
2021/12/21 11:00:02;;;;;;;;;;;;;;;;;;5120254;28;19911;-68
2021/12/21 11:02:30;;;;;;;;;;;;;;;;;;5120281;28;19923;-67
2021/12/21 11:04:57;;;;;;;;;;;;;;;;;;5120641;28;19934;-69
2021/12/21 11:07:47;;;;;;;;;;;;;;;;;;5120220;28;19931;-68
2021/12/21 11:10:11;;;;;;;;;;;;;;;;;;5117604;28;19919;-68
2021/12/21 11:12:37;;;;;;;;;;;;;;;;;;5103014;28;19904;-67
2021/12/21 11:15:03;;;;;;;;;;;;;;;;;;5120599;28;19943;-66
2021/12/21 11:17:29;;;;;;;;;;;;;;;;;;5102854;28;19920;-67
2021/12/21 11:19:55;;;;;;;;;;;;;;;;;;5103202;28;19916;-68
2021/12/21 11:22:21;;;;;;;;;;;;;;;;;;5120007;28;19927;-69
2021/12/21 11:24:47;;;;;;;;;;;;;;;;;;5120197;28;20019;-69
2021/12/21 11:27:13;;;;;;;;;;;;;;;;;;5120186;28;19974;-68
2021/12/21 11:29:39;;;;;;;;;;;;;;;;;;5102935;28;19920;-67
2021/12/21 11:32:06;;;;;;;;;;;;;;;;;;5119906;28;19983;-68
2021/12/21 11:34:34;;;;;;;;;;;;;;;;;;5119865;28;19912;-67
2021/12/21 11:39:44;;;;;;;;;;;;;;;;;;5120444;28;19920;-67
2021/12/21 11:42:10;;;;;;;;;;;;;;;;;;5120296;28;19904;-69
2021/12/21 11:44:36;;;;;;;;;;;;;;;;;;5119786;28;19903;-69
2021/12/21 11:47:02;;;;;;;;;;;;;;;;;;5119259;28;19904;-69
2021/12/21 11:49:29;;;;;;;;;;;;;;;;;;5120003;28;19923;-69
2021/12/21 11:51:55;;;;;;;;;;;;;;;;;;5102665;28;19911;-70
2021/12/21 11:54:22;;;;;;;;;;;;;;;;;;5119586;28;19911;-69
2021/12/21 11:56:48;;;;;;;;;;;;;;;;;;5119955;28;19927;-69
2021/12/21 11:59:13;;;;;;;;;;;;;;;;;;5119615;28;19967;-68
2021/12/21 12:01:39;;;;;;;;;;;;;;;;;;5119008;28;19904;-66
2021/12/21 12:04:08;;;;;;;;;;;;;;;;;;5119025;28;19912;-67
2021/12/21 12:06:34;;;;;;;;;;;;;;;;;;5119873;28;19904;-69
2021/12/21 12:09:00;;;;;;;;;;;;;;;;;;5102584;28;19920;-69
2021/12/21 12:11:27;;;;;;;;;;;;;;;;;;5102164;28;19929;-69
2021/12/21 12:13:53;;;;;;;;;;;;;;;;;;5119474;28;19904;-69
2021/12/21 12:16:19;;;;;;;;;;;;;;;;;;5102155;28;19911;-69
2021/12/21 12:18:44;;;;;;;;;;;;;;;;;;5119307;28;20092;-70
2021/12/21 12:21:10;;;;;;;;;;;;;;;;;;5102136;28;19911;-69
2021/12/21 12:23:36;;;;;;;;;;;;;;;;;;5118624;28;19911;-70
2021/12/21 12:26:03;;;;;;;;;;;;;;;;;;5118887;28;19928;-69
2021/12/21 12:28:32;;;;;;;;;;;;;;;;;;5119686;28;19904;-70
2021/12/21 12:30:58;;;;;;;;;;;;;;;;;;5118909;28;19911;-69
2021/12/21 12:33:24;;;;;;;;;;;;;;;;;;5119206;28;19908;-69
2021/12/21 12:35:49;;;;;;;;;;;;;;;;;;5119659;28;19903;-71
2021/12/21 12:38:16;;;;;;;;;;;;;;;;;;5118878;28;19926;-71
2021/12/21 12:40:42;;;;;;;;;;;;;;;;;;5118219;28;19935;-70
2021/12/21 12:43:08;;;;;;;;;;;;;;;;;;5118852;28;19926;-69
2021/12/21 12:45:34;;;;;;;;;;;;;;;;;;5118717;28;19963;-70
2021/12/21 12:48:00;;;;;;;;;;;;;;;;;;5101514;28;19908;-71
2021/12/21 12:50:27;;;;;;;;;;;;;;;;;;5118510;28;19908;-73
2021/12/21 12:52:53;;;;;;;;;;;;;;;;;;5101857;28;19904;-69
2021/12/21 12:55:19;;;;;;;;;;;;;;;;;;5101570;28;19908;-69
2021/12/21 12:57:45;;;;;;;;;;;;;;;;;;5118691;28;19931;-68
2021/12/21 13:00:11;;;;;;;;;;;;;;;;;;5118625;28;19922;-67
2021/12/21 13:02:36;;;;;;;;;;;;;;;;;;5118400;28;19951;-69
2021/12/21 13:05:02;;;;;;;;;;;;;;;;;;5118520;28;19904;-70
2021/12/21 13:07:28;;;;;;;;;;;;;;;;;;5118411;28;19904;-69
2021/12/21 13:09:54;;;;;;;;;;;;;;;;;;5118479;28;19962;-69
2021/12/21 13:12:20;;;;;;;;;;;;;;;;;;5101618;28;19904;-69
2021/12/21 13:14:46;;;;;;;;;;;;;;;;;;5118374;28;19919;-69
2021/12/21 13:17:12;;;;;;;;;;;;;;;;;;5118522;28;19924;-69
2021/12/21 13:19:38;;;;;;;;;;;;;;;;;;5101497;28;19911;-68
2021/12/21 13:22:04;;;;;;;;;;;;;;;;;;5118227;28;19904;-69
2021/12/21 13:24:33;;;;;;;;;;;;;;;;;;5118914;28;19911;-70
2021/12/21 13:26:59;;;;;;;;;;;;;;;;;;5118326;28;19904;-69
2021/12/21 13:29:25;;;;;;;;;;;;;;;;;;5118372;28;19922;-69
2021/12/21 13:31:51;;;;;;;;;;;;;;;;;;5118134;28;19904;-70
2021/12/21 13:34:16;;;;;;;;;;;;;;;;;;5118243;28;19904;-69
2021/12/21 13:36:43;;;;;;;;;;;;;;;;;;5120377;28;19947;-68
2021/12/21 13:39:09;;;;;;;;;;;;;;;;;;5122302;28;19964;-68
2021/12/21 13:41:35;;;;;;;;;;;;;;;;;;5122723;28;19916;-69
2021/12/21 13:44:01;;;;;;;;;;;;;;;;;;5121816;28;20392;-68
2021/12/21 13:46:27;;;;;;;;;;;;;;;;;;5121871;28;19924;-68
2021/12/21 13:48:52;;;;;;;;;;;;;;;;;;5138868;28;19991;-68
2021/12/21 13:51:18;;;;;;;;;;;;;;;;;;5122399;28;19924;-68
2021/12/21 13:53:44;;;;;;;;;;;;;;;;;;5138860;28;19911;-69
2021/12/21 13:56:10;;;;;;;;;;;;;;;;;;5139106;28;19928;-70
2021/12/21 13:58:36;;;;;;;;;;;;;;;;;;5121610;28;19904;-69
2021/12/21 14:01:02;;;;;;;;;;;;;;;;;;5122272;28;19924;-69
2021/12/21 14:03:34;;;;;;;;;;;;;;;;;;5121948;28;19904;-68
2021/12/21 14:06:09;;;;;;;;;;;;;;;;;;5122378;28;19904;-67
2021/12/21 14:08:35;;;;;;;;;;;;;;;;;;5138672;28;19923;-68
2021/12/21 14:11:01;;;;;;;;;;;;;;;;;;5122136;28;19920;-67
2021/12/21 14:13:27;;;;;;;;;;;;;;;;;;5149439;27;19942;-67
2021/12/21 14:15:52;;;;;;;;;;;;;;;;;;5121320;28;19904;-67
2021/12/21 14:18:18;;;;;;;;;;;;;;;;;;5121309;28;19931;-68
2021/12/21 14:20:44;;;;;;;;;;;;;;;;;;5121993;28;19904;-68
2021/12/21 14:23:10;;;;;;;;;;;;;;;;;;5121258;28;19904;-68
2021/12/21 14:25:36;;;;;;;;;;;;;;;;;;5121033;28;19904;-66
2021/12/21 14:28:02;;;;;;;;;;;;;;;;;;5137317;28;19908;-67
2021/12/21 14:30:28;;;;;;;;;;;;;;;;;;5120959;28;19911;-67
2021/12/21 14:33:09;;;;;;;;;;;;;;;;;;5154975;27;19924;-69
2021/12/21 14:35:35;;;;;;;;;;;;;;;;;;5121685;28;19920;-70
2021/12/21 14:38:01;;;;;;;;;;;;;;;;;;5121589;28;19915;-69
2021/12/21 14:40:27;;;;;;;;;;;;;;;;;;5120382;28;19936;-68
2021/12/21 14:42:52;;;;;;;;;;;;;;;;;;5148031;27;19943;-69
2021/12/21 14:45:18;;;;;;;;;;;;;;;;;;5120765;28;19904;-69
2021/12/21 14:47:45;;;;;;;;;;;;;;;;;;5137066;28;19904;-69
2021/12/21 14:50:14;;;;;;;;;;;;;;;;;;5120639;28;19908;-69
2021/12/21 14:52:40;;;;;;;;;;;;;;;;;;5121341;28;19919;-69
2021/12/21 14:55:06;;;;;;;;;;;;;;;;;;5120255;28;19912;-70
2021/12/21 14:57:32;;;;;;;;;;;;;;;;;;5120305;28;19955;-68
2021/12/21 14:59:57;;;;;;;;;;;;;;;;;;5120315;28;19904;-68
2021/12/21 15:02:48;;;;;;;;;;;;;;;;;;5120560;28;19965;-69
2021/12/21 15:05:09;;;;;;;;;;;;;;;;;;5120511;28;19950;-69
2021/12/21 15:07:36;;;;;;;;;;;;;;;;;;5120370;28;19947;-69
2021/12/21 15:10:02;;;;;;;;;;;;;;;;;;5119663;28;19904;-69
2021/12/21 15:12:28;;;;;;;;;;;;;;;;;;5119896;28;19926;-69
2021/12/21 15:14:54;;;;;;;;;;;;;;;;;;5118640;28;20439;-69
2021/12/21 15:17:20;;;;;;;;;;;;;;;;;;5118537;28;19920;-69
2021/12/21 15:19:46;;;;;;;;;;;;;;;;;;5119290;28;19911;-68
2021/12/21 15:22:12;;;;;;;;;;;;;;;;;;5118415;28;19904;-69
2021/12/21 15:24:41;;;;;;;;;;;;;;;;;;5118493;28;19920;-69
2021/12/21 15:27:07;;;;;;;;;;;;;;;;;;5118445;28;19908;-68
2021/12/21 15:29:32;;;;;;;;;;;;;;;;;;5135502;28;19959;-69
2021/12/21 15:31:58;;;;;;;;;;;;;;;;;;5135449;28;19904;-68
2021/12/21 15:34:24;;;;;;;;;;;;;;;;;;5117985;28;19927;-69
2021/12/21 15:36:51;;;;;;;;;;;;;;;;;;5118784;28;19958;-68
2021/12/21 15:39:19;;;;;;;;;;;;;;;;;;5134859;28;19927;-68
2021/12/21 15:41:45;;;;;;;;;;;;;;;;;;5118908;28;19920;-68
2021/12/21 15:44:11;;;;;;;;;;;;;;;;;;5119987;28;19920;-68
2021/12/21 15:46:40;;;;;;;;;;;;;;;;;;5152475;27;19930;-68
2021/12/21 15:49:06;;;;;;;;;;;;;;;;;;5119176;28;19971;-67
2021/12/21 15:51:32;;;;;;;;;;;;;;;;;;5118308;28;19927;-65
2021/12/21 15:53:58;;;;;;;;;;;;;;;;;;5118654;28;19962;-65
2021/12/21 15:56:25;;;;;;;;;;;;;;;;;;5135555;28;20095;-68
2021/12/21 15:58:51;;;;;;;;;;;;;;;;;;5135735;28;19911;-68
2021/12/21 16:01:17;;;;;;;;;;;;;;;;;;5119362;28;19904;-70
2021/12/21 16:03:44;;;;;;;;;;;;;;;;;;5117472;28;19908;-68
2021/12/21 16:06:13;;;;;;;;;;;;;;;;;;5134126;28;20374;-66
2021/12/21 16:08:39;;;;;;;;;;;;;;;;;;5119717;28;19911;-67
2021/12/21 16:11:05;;;;;;;;;;;;;;;;;;5119104;28;19919;-67
2021/12/21 16:13:31;;;;;;;;;;;;;;;;;;5119608;28;19915;-67
2021/12/21 16:15:56;;;;;;;;;;;;;;;;;;5118143;28;19920;-65
2021/12/21 16:18:22;;;;;;;;;;;;;;;;;;5118917;28;19937;-68
2021/12/21 16:20:48;;;;;;;;;;;;;;;;;;5119559;28;19904;-68
2021/12/21 16:23:14;;;;;;;;;;;;;;;;;;5118357;28;19962;-65
2021/12/21 16:25:40;;;;;;;;;;;;;;;;;;5110945;28;19987;-64
2021/12/21 16:28:06;;;;;;;;;;;;;;;;;;5128009;28;19983;-65
2021/12/21 16:30:32;;;;;;;;;;;;;;;;;;5112022;28;19920;-65
2021/12/21 16:32:59;;;;;;;;;;;;;;;;;;5115563;28;19904;-66
2021/12/21 16:35:24;;;;;;;;;;;;;;;;;;5135601;28;19959;-67
2021/12/21 16:37:51;;;;;;;;;;;;;;;;;;5118356;28;19923;-67
2021/12/21 16:40:17;;;;;;;;;;;;;;;;;;5135682;28;19904;-67
2021/12/21 16:42:43;;;;;;;;;;;;;;;;;;5118540;28;19958;-66
2021/12/21 16:45:08;;;;;;;;;;;;;;;;;;5134262;28;19904;-69
2021/12/21 16:47:34;;;;;;;;;;;;;;;;;;5118129;28;19918;-67
2021/12/21 16:50:00;;;;;;;;;;;;;;;;;;5119092;28;19904;-67
2021/12/21 16:52:29;;;;;;;;;;;;;;;;;;5118713;28;19919;-68
2021/12/21 16:55:00;;;;;;;;;;;;;;;;;;5118421;28;19927;-67
2021/12/21 16:57:29;;;;;;;;;;;;;;;;;;5151100;27;19924;-68
2021/12/21 16:59:58;;;;;;;;;;;;;;;;;;5118089;28;19923;-68
2021/12/21 17:02:23;;;;;;;;;;;;;;;;;;5135386;28;19919;-66
2021/12/21 17:04:49;;;;;;;;;;;;;;;;;;5118507;28;19904;-66
2021/12/21 17:07:15;;;;;;;;;;;;;;;;;;5119069;28;19963;-67
2021/12/21 17:09:41;;;;;;;;;;;;;;;;;;5135429;28;19944;-68
2021/12/21 17:12:07;;;;;;;;;;;;;;;;;;5139854;28;19920;-67
2021/12/21 17:14:33;;;;;;;;;;;;;;;;;;5122170;28;20053;-65
2021/12/21 17:16:59;;;;;;;;;;;;;;;;;;5122352;28;19904;-66
2021/12/21 17:19:25;;;;;;;;;;;;;;;;;;5121844;28;19924;-66
2021/12/21 17:21:51;;;;;;;;;;;;;;;;;;5121890;28;19986;-68
2021/12/21 17:24:17;;;;;;;;;;;;;;;;;;5122913;28;19904;-68
2021/12/21 17:26:43;;;;;;;;;;;;;;;;;;5137635;28;19904;-67
2021/12/21 17:29:09;;;;;;;;;;;;;;;;;;5120790;28;19920;-67
2021/12/21 17:31:35;;;;;;;;;;;;;;;;;;5121148;28;19926;-66
2021/12/21 17:34:05;;;;;;;;;;;;;;;;;;5138733;28;19955;-65
2021/12/21 17:36:31;;;;;;;;;;;;;;;;;;5156629;27;19985;-68
2021/12/21 17:38:57;;;;;;;;;;;;;;;;;;5120888;28;19926;-66
2021/12/21 17:41:23;;;;;;;;;;;;;;;;;;5120597;28;19908;-67
2021/12/21 17:43:49;;;;;;;;;;;;;;;;;;5121307;28;19908;-67
2021/12/21 17:46:15;;;;;;;;;;;;;;;;;;5121222;28;19916;-67